Time;durP1;ratioP1;P1;durP2;ratioP2;P2;SDS_P1;SDS_P2;PMS_P1;PMS_P2;Temp;Humidity;BMP_temperature;BMP_pressure;BME280_temperature;BME280_humidity;BME280_pressure;Samples;Min_cycle;Max_cycle;Signal;HPM_P1;HPM_P2
2023/08/07 00:00:16;;;;;;;1.45;0.60;;;;;;;;;;5046780;28;20072;-81
2023/08/07 00:02:43;;;;;;;0.95;0.95;;;;;;;;;;5046932;28;20049;-76
2023/08/07 00:05:11;;;;;;;0.93;0.88;;;;;;;;;;5046710;28;20056;-78
2023/08/07 00:07:38;;;;;;;0.90;0.90;;;;;;;;;;5026931;28;20041;-80
2023/08/07 00:10:07;;;;;;;2.05;0.82;;;;;;;;;;5045215;28;20065;-76
2023/08/07 00:12:34;;;;;;;2.08;1.15;;;;;;;;;;5042520;28;20048;-76
2023/08/07 00:15:03;;;;;;;1.67;0.90;;;;;;;;;;5042292;28;20041;-78
2023/08/07 00:17:30;;;;;;;1.70;0.90;;;;;;;;;;5044718;28;20056;-76
2023/08/07 00:19:58;;;;;;;1.02;0.80;;;;;;;;;;4995127;28;20225;-77
2023/08/07 00:22:25;;;;;;;1.40;0.70;;;;;;;;;;5045252;28;20072;-80
2023/08/07 00:24:53;;;;;;;2.08;0.90;;;;;;;;;;5046126;28;20568;-76
2023/08/07 00:27:21;;;;;;;1.17;1.08;;;;;;;;;;5052771;28;20057;-76
2023/08/07 00:29:48;;;;;;;1.00;1.00;;;;;;;;;;5045772;28;20067;-77
2023/08/07 00:32:15;;;;;;;1.05;0.95;;;;;;;;;;5045965;28;20114;-77
2023/08/07 00:34:43;;;;;;;1.17;1.00;;;;;;;;;;5045825;28;20495;-76
2023/08/07 00:37:12;;;;;;;1.73;1.27;;;;;;;;;;5045801;28;20511;-79
2023/08/07 00:39:39;;;;;;;0.80;0.80;;;;;;;;;;5027418;28;20450;-76
2023/08/07 00:42:07;;;;;;;1.10;1.00;;;;;;;;;;5091898;22;20193;-78
2023/08/07 00:44:35;;;;;;;1.00;0.93;;;;;;;;;;5021273;28;20091;-75
2023/08/07 00:47:03;;;;;;;4.53;1.15;;;;;;;;;;5024591;28;20054;-76
2023/08/07 00:49:30;;;;;;;1.00;0.90;;;;;;;;;;5023765;28;20457;-77
2023/08/07 00:51:58;;;;;;;1.38;0.90;;;;;;;;;;5007449;28;20072;-77
2023/08/07 00:54:25;;;;;;;2.72;0.90;;;;;;;;;;5024645;28;20067;-77
2023/08/07 00:56:53;;;;;;;0.98;0.90;;;;;;;;;;5024491;28;20053;-76
2023/08/07 00:59:21;;;;;;;1.00;1.00;;;;;;;;;;5023231;28;20136;-77
2023/08/07 01:01:49;;;;;;;1.05;0.85;;;;;;;;;;5023657;28;20136;-77
2023/08/07 01:04:17;;;;;;;1.33;1.10;;;;;;;;;;5023592;28;20041;-76
2023/08/07 01:06:44;;;;;;;0.90;0.90;;;;;;;;;;5006243;28;20046;-77
2023/08/07 01:09:11;;;;;;;1.25;0.93;;;;;;;;;;5022831;28;20072;-76
2023/08/07 01:11:50;;;;;;;2.42;1.10;;;;;;;;;;5024020;28;20481;-75
2023/08/07 01:14:22;;;;;;;1.80;1.00;;;;;;;;;;5023881;28;20063;-77
2023/08/07 01:16:56;;;;;;;1.40;1.25;;;;;;;;;;5006763;28;20045;-76
2023/08/07 01:19:25;;;;;;;1.35;0.88;;;;;;;;;;5005622;28;20467;-77
2023/08/07 01:22:11;;;;;;;1.10;0.82;;;;;;;;;;5023813;28;20050;-76
2023/08/07 01:24:40;;;;;;;0.80;0.73;;;;;;;;;;5024151;28;20068;-77
2023/08/07 01:27:19;;;;;;;0.70;0.70;;;;;;;;;;5009698;28;20053;-77
2023/08/07 01:30:07;;;;;;;3.90;1.20;;;;;;;;;;5016998;28;20057;-77
2023/08/07 01:32:38;;;;;;;1.05;0.90;;;;;;;;;;5028027;28;20064;-77
2023/08/07 01:35:06;;;;;;;3.35;0.90;;;;;;;;;;5010621;28;20084;-76
2023/08/07 01:37:37;;;;;;;0.80;0.80;;;;;;;;;;5009925;28;20041;-77
2023/08/07 01:40:06;;;;;;;2.03;0.98;;;;;;;;;;5028193;28;20049;-76
2023/08/07 01:42:33;;;;;;;1.10;0.70;;;;;;;;;;5010055;28;20073;-75
2023/08/07 01:45:01;;;;;;;3.67;0.88;;;;;;;;;;5010315;28;20041;-76
2023/08/07 01:47:31;;;;;;;1.10;1.00;;;;;;;;;;5009542;28;20124;-76
2023/08/07 01:50:01;;;;;;;5.07;0.88;;;;;;;;;;5027996;28;20065;-76
2023/08/07 01:52:30;;;;;;;1.08;0.60;;;;;;;;;;5028336;28;20199;-75
2023/08/07 01:55:00;;;;;;;;;;;;;;;;;;5029276;28;20052;-75
2023/08/07 01:57:29;;;;;;;0.73;0.70;;;;;;;;;;5027833;28;19927;-76
2023/08/07 02:00:00;;;;;;;0.95;0.68;;;;;;;;;;5027230;28;20041;-75
2023/08/07 02:02:27;;;;;;;1.50;0.73;;;;;;;;;;5009923;28;20049;-76
2023/08/07 02:04:55;;;;;;;2.25;0.82;;;;;;;;;;5009745;28;20111;-76
2023/08/07 02:07:22;;;;;;;2.15;0.77;;;;;;;;;;5009336;28;20053;-76
2023/08/07 02:09:49;;;;;;;1.63;0.80;;;;;;;;;;5009360;28;20447;-76
2023/08/07 02:12:17;;;;;;;1.15;0.70;;;;;;;;;;5009774;28;20073;-76
2023/08/07 02:14:45;;;;;;;1.05;0.77;;;;;;;;;;5009504;28;20072;-76
2023/08/07 02:17:12;;;;;;;349.13;53.38;;;;;;;;;;5007093;28;20045;-76
2023/08/07 02:19:40;;;;;;;51.45;8.95;;;;;;;;;;5019333;28;20159;-75
2023/08/07 02:22:08;;;;;;;1.98;0.80;;;;;;;;;;5011227;28;20103;-76
2023/08/07 02:24:36;;;;;;;0.82;0.60;;;;;;;;;;5027764;28;20456;-75
2023/08/07 02:27:08;;;;;;;0.70;0.70;;;;;;;;;;5029333;28;20045;-75
2023/08/07 02:29:39;;;;;;;1.08;0.80;;;;;;;;;;5029320;28;20053;-76
2023/08/07 02:32:07;;;;;;;6.13;0.63;;;;;;;;;;5027789;28;20495;-76
2023/08/07 02:34:35;;;;;;;3.35;0.80;;;;;;;;;;5010052;28;20053;-76
2023/08/07 02:37:06;;;;;;;6.35;1.30;;;;;;;;;;5027784;28;20609;-76
2023/08/07 02:39:34;;;;;;;162.68;27.55;;;;;;;;;;5010367;28;20057;-76
2023/08/07 02:42:03;;;;;;;1.95;0.63;;;;;;;;;;5027193;28;20064;-75
2023/08/07 02:44:30;;;;;;;0.70;0.70;;;;;;;;;;5007729;28;20041;-76
2023/08/07 02:46:58;;;;;;;0.75;0.70;;;;;;;;;;5010091;28;20249;-76
2023/08/07 02:49:25;;;;;;;6.32;0.90;;;;;;;;;;5028243;28;20049;-75
2023/08/07 02:51:53;;;;;;;1.55;0.52;;;;;;;;;;5028433;28;20082;-76
2023/08/07 02:54:20;;;;;;;0.43;0.43;;;;;;;;;;5028537;28;20077;-76
2023/08/07 02:56:48;;;;;;;0.60;0.60;;;;;;;;;;5028020;28;20454;-76
2023/08/07 02:59:16;;;;;;;0.70;0.68;;;;;;;;;;5027380;28;20045;-76
2023/08/07 03:01:45;;;;;;;0.75;0.45;;;;;;;;;;5027435;28;20046;-75
2023/08/07 03:04:12;;;;;;;0.40;0.40;;;;;;;;;;5009902;28;20053;-75
2023/08/07 03:06:40;;;;;;;0.40;0.40;;;;;;;;;;5027162;28;20050;-75
2023/08/07 03:09:07;;;;;;;3.70;0.40;;;;;;;;;;5009030;28;20404;-76
2023/08/07 03:11:35;;;;;;;0.70;0.70;;;;;;;;;;5027377;28;20053;-77
2023/08/07 03:14:03;;;;;;;2.17;0.50;;;;;;;;;;5009734;28;20056;-75
2023/08/07 03:16:30;;;;;;;0.93;0.57;;;;;;;;;;5026703;28;20053;-75
2023/08/07 03:18:58;;;;;;;1.00;0.63;;;;;;;;;;5025874;28;20041;-76
2023/08/07 03:21:26;;;;;;;0.43;0.43;;;;;;;;;;5026508;28;20079;-76
2023/08/07 03:23:54;;;;;;;0.77;0.63;;;;;;;;;;5009142;28;20123;-76
2023/08/07 03:26:21;;;;;;;1.73;0.75;;;;;;;;;;5026211;28;20115;-75
2023/08/07 03:28:49;;;;;;;2.92;0.50;;;;;;;;;;5006748;28;20053;-76
2023/08/07 03:31:17;;;;;;;0.85;0.50;;;;;;;;;;5026734;28;20056;-76
2023/08/07 03:33:46;;;;;;;0.50;0.50;;;;;;;;;;5027032;28;20136;-76
2023/08/07 03:36:15;;;;;;;235.70;69.35;;;;;;;;;;5008442;28;20132;-76
2023/08/07 03:38:43;;;;;;;1.02;0.60;;;;;;;;;;5025257;28;20568;-76
2023/08/07 03:41:10;;;;;;;2.17;0.50;;;;;;;;;;5006402;28;20175;-76
2023/08/07 03:43:40;;;;;;;0.52;0.52;;;;;;;;;;5007713;28;20053;-76
2023/08/07 03:46:08;;;;;;;0.70;0.70;;;;;;;;;;5008150;28;20065;-76
2023/08/07 03:48:35;;;;;;;1.27;0.60;;;;;;;;;;5024802;28;20053;-76
2023/08/07 03:51:04;;;;;;;0.50;0.50;;;;;;;;;;5007801;28;20631;-76
2023/08/07 03:53:35;;;;;;;0.60;0.60;;;;;;;;;;5007778;28;20079;-76
2023/08/07 03:56:03;;;;;;;0.50;0.50;;;;;;;;;;5007753;28;20049;-76
2023/08/07 03:58:32;;;;;;;0.57;0.57;;;;;;;;;;5007173;28;20052;-76
2023/08/07 04:01:00;;;;;;;0.57;0.57;;;;;;;;;;5026052;28;20049;-76
2023/08/07 04:03:27;;;;;;;3.25;0.85;;;;;;;;;;5008077;28;20500;-77
2023/08/07 04:05:55;;;;;;;1.50;0.80;;;;;;;;;;5007980;28;20491;-76
2023/08/07 04:08:23;;;;;;;1.10;0.80;;;;;;;;;;5007225;28;20068;-76
2023/08/07 04:11:04;;;;;;;1.42;0.75;;;;;;;;;;5007526;28;20046;-76
2023/08/07 04:13:33;;;;;;;0.50;0.50;;;;;;;;;;5025483;28;20037;-76
2023/08/07 04:16:04;;;;;;;1.55;0.80;;;;;;;;;;5002718;28;20045;-75
2023/08/07 04:18:32;;;;;;;1.90;0.98;;;;;;;;;;5003652;28;20053;-76
2023/08/07 04:21:00;;;;;;;1.85;0.60;;;;;;;;;;5006933;28;20474;-76
2023/08/07 04:23:28;;;;;;;1.85;0.60;;;;;;;;;;5007409;28;20442;-77
2023/08/07 04:25:55;;;;;;;0.70;0.70;;;;;;;;;;5024227;28;20136;-76
2023/08/07 04:28:22;;;;;;;0.85;0.70;;;;;;;;;;5007679;28;20450;-77
2023/08/07 04:30:50;;;;;;;1.40;0.80;;;;;;;;;;5025513;28;20077;-76
2023/08/07 04:33:18;;;;;;;1.10;0.80;;;;;;;;;;5026399;28;20042;-76
2023/08/07 04:35:49;;;;;;;124.45;18.45;;;;;;;;;;5025619;28;20099;-76
2023/08/07 04:38:17;;;;;;;2.00;0.77;;;;;;;;;;5025618;28;20053;-76
2023/08/07 04:40:47;;;;;;;0.90;0.85;;;;;;;;;;5024047;28;20041;-76
2023/08/07 04:43:15;;;;;;;1.55;0.70;;;;;;;;;;5025262;28;20049;-77
2023/08/07 04:45:44;;;;;;;76.18;8.30;;;;;;;;;;5024124;28;20392;-76
2023/08/07 04:48:13;;;;;;;0.70;0.70;;;;;;;;;;5024892;28;20044;-76
2023/08/07 04:50:40;;;;;;;0.85;0.85;;;;;;;;;;5024829;28;20111;-76
2023/08/07 04:53:08;;;;;;;1.48;0.60;;;;;;;;;;5007147;28;20553;-77
2023/08/07 04:55:36;;;;;;;0.98;0.57;;;;;;;;;;5024492;28;20157;-77
2023/08/07 04:58:03;;;;;;;2.60;0.60;;;;;;;;;;5024570;28;20061;-76
2023/08/07 05:00:30;;;;;;;1.40;0.73;;;;;;;;;;5025019;28;20503;-75
2023/08/07 05:02:58;;;;;;;0.73;0.57;;;;;;;;;;5029392;28;20055;-76
2023/08/07 05:05:26;;;;;;;1.88;0.90;;;;;;;;;;5029017;28;20049;-77
2023/08/07 05:07:54;;;;;;;0.98;0.90;;;;;;;;;;5028516;28;20047;-76
2023/08/07 05:10:22;;;;;;;1.27;0.70;;;;;;;;;;5028681;28;20526;-76
2023/08/07 05:12:55;;;;;;;1.42;0.60;;;;;;;;;;5028182;28;20046;-76
2023/08/07 05:15:26;;;;;;;0.93;0.70;;;;;;;;;;5028948;28;20046;-77
2023/08/07 05:17:53;;;;;;;0.60;0.60;;;;;;;;;;5028306;28;20059;-78
2023/08/07 05:20:21;;;;;;;0.85;0.80;;;;;;;;;;5028691;28;20382;-77
2023/08/07 05:22:48;;;;;;;1.30;0.60;;;;;;;;;;5028805;28;20069;-76
2023/08/07 05:25:16;;;;;;;1.98;0.88;;;;;;;;;;5028462;28;20203;-76
2023/08/07 05:27:44;;;;;;;0.70;0.70;;;;;;;;;;5028564;28;20042;-77
2023/08/07 05:30:12;;;;;;;71.65;7.32;;;;;;;;;;5028766;28;20128;-77
2023/08/07 05:32:39;;;;;;;407.75;58.20;;;;;;;;;;5029388;28;20038;-75
2023/08/07 05:35:07;;;;;;;1.95;0.70;;;;;;;;;;5029745;28;20102;-77
2023/08/07 05:37:35;;;;;;;0.85;0.80;;;;;;;;;;5028028;28;20128;-76
2023/08/07 05:40:03;;;;;;;86.13;20.35;;;;;;;;;;5019291;28;20410;-76
2023/08/07 05:42:30;;;;;;;0.90;0.82;;;;;;;;;;5028351;28;20115;-76
2023/08/07 05:44:58;;;;;;;1.40;1.00;;;;;;;;;;5028349;28;20045;-76
2023/08/07 05:47:26;;;;;;;1.15;0.90;;;;;;;;;;5028336;28;20250;-76
2023/08/07 05:49:53;;;;;;;0.90;0.90;;;;;;;;;;5027410;28;20424;-77
2023/08/07 05:52:21;;;;;;;351.15;68.85;;;;;;;;;;5028537;28;20051;-76
2023/08/07 05:54:48;;;;;;;1.85;1.02;;;;;;;;;;5028847;28;20055;-76
2023/08/07 05:57:15;;;;;;;7.70;3.08;;;;;;;;;;5028876;28;20053;-76
2023/08/07 05:59:43;;;;;;;176.55;25.63;;;;;;;;;;5026908;28;20133;-77
2023/08/07 06:02:13;;;;;;;1.92;1.00;;;;;;;;;;5027635;28;20056;-76
2023/08/07 06:04:40;;;;;;;1.70;1.00;;;;;;;;;;5027270;28;20041;-76
2023/08/07 06:07:08;;;;;;;1.95;1.02;;;;;;;;;;5027910;28;20068;-76
2023/08/07 06:09:36;;;;;;;1.70;1.02;;;;;;;;;;5027585;28;20077;-76
2023/08/07 06:12:03;;;;;;;30.00;5.93;;;;;;;;;;5026546;28;20399;-75
2023/08/07 06:14:31;;;;;;;1.42;0.98;;;;;;;;;;5028057;28;20037;-76
2023/08/07 06:17:00;;;;;;;1.05;0.82;;;;;;;;;;5026926;28;20054;-76
2023/08/07 06:19:28;;;;;;;1.80;0.80;;;;;;;;;;5026954;28;20070;-77
2023/08/07 06:21:59;;;;;;;1.25;0.93;;;;;;;;;;5027020;28;20254;-76
2023/08/07 06:24:27;;;;;;;1.58;1.33;;;;;;;;;;5027643;28;20075;-78
2023/08/07 06:26:55;;;;;;;2.67;1.15;;;;;;;;;;5027483;28;20187;-77
2023/08/07 06:29:22;;;;;;;35.40;7.50;;;;;;;;;;5026243;28;20049;-76
2023/08/07 06:31:50;;;;;;;1.77;1.05;;;;;;;;;;5026964;28;20053;-74
2023/08/07 06:34:17;;;;;;;1.90;1.02;;;;;;;;;;5027428;28;20129;-76
2023/08/07 06:36:45;;;;;;;5.32;1.33;;;;;;;;;;5026702;28;20042;-77
2023/08/07 06:39:12;;;;;;;1.02;0.93;;;;;;;;;;5026753;28;20517;-77
2023/08/07 06:44:53;;;;;;;1.02;0.90;;;;;;;;;;4969997;28;20046;-89
2023/08/07 06:48:04;;;;;;;;;;;;;;;;;;;;;
2023/08/07 06:51:29;;;;;;;0.90;0.90;;;;;;;;;;4971292;28;20515;-89
2023/08/07 06:54:32;;;;;;;1.77;0.95;;;;;;;;;;4932005;29;20501;-90
2023/08/07 06:57:33;;;;;;;1.77;0.85;;;;;;;;;;4933271;29;20103;-89
2023/08/07 07:01:13;;;;;;;;;;;;;;;;;;;;;
2023/08/07 07:04:42;;;;;;;134.90;22.13;;;;;;;;;;4951099;29;20493;-89
2023/08/07 07:08:07;;;;;;;;;;;;;;;;;;;;;
2023/08/07 07:11:31;;;;;;;0.80;0.80;;;;;;;;;;4961640;28;20027;-90
2023/08/07 07:14:05;;;;;;;0.70;0.70;;;;;;;;;;5005142;28;20042;-78
2023/08/07 07:16:33;;;;;;;0.75;0.75;;;;;;;;;;5002175;28;20448;-79
2023/08/07 07:19:00;;;;;;;0.85;0.85;;;;;;;;;;5014226;28;20052;-79
2023/08/07 07:21:29;;;;;;;1.98;1.42;;;;;;;;;;5026028;28;20569;-79
2023/08/07 07:23:56;;;;;;;2.38;1.15;;;;;;;;;;5030947;28;20085;-79
2023/08/07 07:26:24;;;;;;;2.15;1.95;;;;;;;;;;5020742;28;20045;-79
2023/08/07 07:28:53;;;;;;;1.25;1.02;;;;;;;;;;5033609;28;20051;-80
2023/08/07 07:31:21;;;;;;;1.50;1.20;;;;;;;;;;5037170;28;20471;-79
2023/08/07 07:33:49;;;;;;;2.00;1.30;;;;;;;;;;5021973;28;20045;-79
2023/08/07 07:36:16;;;;;;;2.33;1.00;;;;;;;;;;5031434;28;20515;-79
2023/08/07 07:38:47;;;;;;;3.25;1.30;;;;;;;;;;5031213;28;20455;-79
2023/08/07 07:41:15;;;;;;;1.95;1.30;;;;;;;;;;5028987;28;20115;-78
2023/08/07 07:43:42;;;;;;;1.52;1.20;;;;;;;;;;5020513;28;20084;-78
2023/08/07 07:46:10;;;;;;;27.80;4.85;;;;;;;;;;5025565;28;20106;-78
2023/08/07 07:48:38;;;;;;;1.10;1.00;;;;;;;;;;5028139;28;20049;-79
2023/08/07 07:51:06;;;;;;;1.27;1.02;;;;;;;;;;5031010;28;20056;-79
2023/08/07 07:53:33;;;;;;;54.70;19.25;;;;;;;;;;5032151;28;20041;-80
2023/08/07 07:56:01;;;;;;;5.30;1.75;;;;;;;;;;5029297;28;20041;-79
2023/08/07 07:58:28;;;;;;;2.10;1.30;;;;;;;;;;5027362;28;20061;-79
2023/08/07 08:00:56;;;;;;;2.45;1.30;;;;;;;;;;5026934;28;20535;-80
2023/08/07 08:03:23;;;;;;;474.80;113.00;;;;;;;;;;5029246;28;20056;-77
2023/08/07 08:05:52;;;;;;;1.30;1.00;;;;;;;;;;5019502;28;20038;-78
2023/08/07 08:08:19;;;;;;;32.33;8.02;;;;;;;;;;5026155;28;20061;-77
2023/08/07 08:10:47;;;;;;;1.48;1.30;;;;;;;;;;5026978;28;20107;-79
2023/08/07 08:13:16;;;;;;;1.00;1.00;;;;;;;;;;5018614;28;20060;-79
2023/08/07 08:15:44;;;;;;;55.78;8.02;;;;;;;;;;5023176;28;20103;-79
2023/08/07 08:18:12;;;;;;;3.17;1.38;;;;;;;;;;5024506;28;20129;-79
2023/08/07 08:20:39;;;;;;;1.50;1.35;;;;;;;;;;5023202;28;20053;-79
2023/08/07 08:23:07;;;;;;;2.83;1.50;;;;;;;;;;5024237;28;20053;-79
2023/08/07 08:25:34;;;;;;;1.30;1.20;;;;;;;;;;5024920;28;20049;-79
2023/08/07 08:28:02;;;;;;;5.53;1.50;;;;;;;;;;5021120;28;20550;-79
2023/08/07 08:30:29;;;;;;;2.53;1.98;;;;;;;;;;5024440;28;20049;-79
2023/08/07 08:32:57;;;;;;;1.88;1.38;;;;;;;;;;5024078;28;20533;-79
2023/08/07 08:35:24;;;;;;;4.20;1.58;;;;;;;;;;5020377;28;20051;-78
2023/08/07 08:37:51;;;;;;;2.83;1.60;;;;;;;;;;5024279;28;20045;-79
2023/08/07 08:40:19;;;;;;;3.28;1.77;;;;;;;;;;5024786;28;20045;-79
2023/08/07 08:42:46;;;;;;;2.17;1.02;;;;;;;;;;5024566;28;20565;-79
2023/08/07 08:45:15;;;;;;;4.75;1.40;;;;;;;;;;5023344;28;20049;-80
2023/08/07 08:47:46;;;;;;;3.08;1.40;;;;;;;;;;5022537;28;20060;-79
2023/08/07 08:50:14;;;;;;;35.90;3.88;;;;;;;;;;5023202;28;20400;-79
2023/08/07 08:52:44;;;;;;;3.95;1.48;;;;;;;;;;5026079;28;20050;-79
2023/08/07 08:55:11;;;;;;;1.63;1.27;;;;;;;;;;5025962;28;20065;-79
2023/08/07 08:57:40;;;;;;;2.17;1.38;;;;;;;;;;5025717;28;20042;-79
2023/08/07 09:00:30;;;;;;;5.05;1.67;;;;;;;;;;5025819;28;20053;-79
2023/08/07 09:02:56;;;;;;;1.38;1.08;;;;;;;;;;5026132;28;20057;-79
2023/08/07 09:05:23;;;;;;;2.25;1.52;;;;;;;;;;5026859;28;20053;-81
2023/08/07 09:07:51;;;;;;;2.80;1.70;;;;;;;;;;5027315;28;20060;-82
2023/08/07 09:10:18;;;;;;;3.65;1.70;;;;;;;;;;5020314;28;20052;-79
2023/08/07 09:12:51;;;;;;;2.47;1.50;;;;;;;;;;5024901;28;20128;-79
2023/08/07 09:15:20;;;;;;;2.35;1.38;;;;;;;;;;5007612;28;20050;-79
2023/08/07 09:17:48;;;;;;;564.95;133.13;;;;;;;;;;5025226;28;20188;-81
2023/08/07 09:20:15;;;;;;;2.25;1.50;;;;;;;;;;5024495;28;20056;-78
2023/08/07 09:22:43;;;;;;;1.33;1.20;;;;;;;;;;5025727;28;20507;-80
2023/08/07 09:25:10;;;;;;;1.88;1.60;;;;;;;;;;5008073;28;20752;-79
2023/08/07 09:27:39;;;;;;;2.70;1.40;;;;;;;;;;5025661;28;20069;-79
2023/08/07 09:30:10;;;;;;;2.90;1.50;;;;;;;;;;5023698;28;20052;-79
2023/08/07 09:32:38;;;;;;;2.13;1.50;;;;;;;;;;5020989;28;20069;-80
2023/08/07 09:35:08;;;;;;;4.10;1.83;;;;;;;;;;5025644;28;20092;-79
2023/08/07 09:37:38;;;;;;;1.30;1.20;;;;;;;;;;5024749;28;20049;-79
2023/08/07 09:40:06;;;;;;;1.73;1.63;;;;;;;;;;5026464;28;20515;-79
2023/08/07 09:42:34;;;;;;;5.20;2.08;;;;;;;;;;5026851;28;20577;-80
2023/08/07 09:45:01;;;;;;;42.70;18.65;;;;;;;;;;5028459;28;20042;-79
2023/08/07 09:47:29;;;;;;;3.90;1.70;;;;;;;;;;5025239;28;20046;-79
2023/08/07 09:49:56;;;;;;;1.33;1.23;;;;;;;;;;5030118;28;20045;-80
2023/08/07 09:52:26;;;;;;;3.10;1.75;;;;;;;;;;5027702;28;20049;-79
2023/08/07 09:54:57;;;;;;;90.07;10.68;;;;;;;;;;5024799;28;20053;-80
2023/08/07 09:57:28;;;;;;;28.05;3.88;;;;;;;;;;5024030;28;20053;-80
2023/08/07 09:59:55;;;;;;;1.98;1.65;;;;;;;;;;5025343;28;20427;-80
2023/08/07 10:02:23;;;;;;;1.65;1.55;;;;;;;;;;5024184;28;20065;-79
2023/08/07 10:04:51;;;;;;;1.58;1.48;;;;;;;;;;5027355;28;20514;-79
2023/08/07 10:07:18;;;;;;;4.07;1.90;;;;;;;;;;5022130;28;20161;-79
2023/08/07 10:09:46;;;;;;;2.65;1.60;;;;;;;;;;5028480;28;20036;-80
2023/08/07 10:12:14;;;;;;;3.47;2.00;;;;;;;;;;5030063;28;20461;-79
2023/08/07 10:14:42;;;;;;;3.08;1.70;;;;;;;;;;5031646;28;20045;-80
2023/08/07 10:17:10;;;;;;;2.60;1.52;;;;;;;;;;5030365;28;20048;-79
2023/08/07 10:19:38;;;;;;;4.90;2.10;;;;;;;;;;5021993;28;20045;-79
2023/08/07 10:22:06;;;;;;;3.60;1.83;;;;;;;;;;5024203;28;20056;-79
2023/08/07 10:24:35;;;;;;;2.35;1.83;;;;;;;;;;5026688;28;20053;-79
2023/08/07 10:27:06;;;;;;;2.05;1.50;;;;;;;;;;5008560;28;20060;-80
2023/08/07 10:29:34;;;;;;;2.58;1.85;;;;;;;;;;5028076;28;20038;-79
2023/08/07 10:32:02;;;;;;;2.67;1.60;;;;;;;;;;5006667;28;20565;-80
2023/08/07 10:34:30;;;;;;;2.55;1.75;;;;;;;;;;5026846;28;20041;-79
2023/08/07 10:36:58;;;;;;;3.58;1.70;;;;;;;;;;5025734;28;20056;-79
2023/08/07 10:39:26;;;;;;;2.25;1.90;;;;;;;;;;5009199;28;20045;-79
2023/08/07 10:41:54;;;;;;;2.25;1.63;;;;;;;;;;5024743;28;20387;-79
2023/08/07 10:44:23;;;;;;;3.75;2.05;;;;;;;;;;5024220;28;20080;-79
2023/08/07 10:46:54;;;;;;;2.92;1.88;;;;;;;;;;5020679;28;20068;-79
2023/08/07 10:49:32;;;;;;;1.95;1.52;;;;;;;;;;5007376;28;20136;-79
2023/08/07 10:52:04;;;;;;;1.77;1.58;;;;;;;;;;5028240;28;20045;-79
2023/08/07 10:54:42;;;;;;;4.97;1.88;;;;;;;;;;5026525;28;20466;-80
2023/08/07 10:57:16;;;;;;;2.80;1.73;;;;;;;;;;5025371;28;20077;-79
2023/08/07 11:00:04;;;;;;;2.10;1.75;;;;;;;;;;5027548;28;20049;-79
2023/08/07 11:02:36;;;;;;;3.08;1.90;;;;;;;;;;5035119;28;20057;-79
2023/08/07 11:05:04;;;;;;;1.90;1.60;;;;;;;;;;5035473;28;20052;-80
2023/08/07 11:07:32;;;;;;;2.03;1.50;;;;;;;;;;5033943;28;20064;-79
2023/08/07 11:09:59;;;;;;;4.15;1.73;;;;;;;;;;5034670;28;20431;-80
2023/08/07 11:12:28;;;;;;;4.68;1.80;;;;;;;;;;5024937;28;20041;-79
2023/08/07 11:14:56;;;;;;;144.70;41.63;;;;;;;;;;4998993;28;20046;-78
2023/08/07 11:17:27;;;;;;;3.53;1.73;;;;;;;;;;5024509;28;20503;-79
2023/08/07 11:19:56;;;;;;;2.85;1.85;;;;;;;;;;5031244;28;20046;-79
2023/08/07 11:22:23;;;;;;;2.78;1.83;;;;;;;;;;5032804;28;20529;-79
2023/08/07 11:24:51;;;;;;;4.70;2.10;;;;;;;;;;5029524;28;20050;-79
2023/08/07 11:27:18;;;;;;;3.20;1.95;;;;;;;;;;5034695;28;20052;-79
2023/08/07 11:29:52;;;;;;;3.80;1.90;;;;;;;;;;5034915;28;20068;-79
2023/08/07 11:32:21;;;;;;;2.88;1.45;;;;;;;;;;5035554;28;20049;-79
2023/08/07 11:34:52;;;;;;;2.50;2.03;;;;;;;;;;5018294;28;20103;-79
2023/08/07 11:37:20;;;;;;;5.15;1.92;;;;;;;;;;5036196;28;20396;-79
2023/08/07 11:39:47;;;;;;;4.68;3.30;;;;;;;;;;5034819;28;20053;-78
2023/08/07 11:42:15;;;;;;;2.92;1.70;;;;;;;;;;5035701;28;20060;-79
2023/08/07 11:44:42;;;;;;;5.82;1.65;;;;;;;;;;5036119;28;20103;-79
2023/08/07 11:47:10;;;;;;;3.70;1.90;;;;;;;;;;5034584;28;20051;-79
2023/08/07 11:49:38;;;;;;;3.35;1.77;;;;;;;;;;5036125;28;20458;-79
2023/08/07 11:52:06;;;;;;;4.53;1.98;;;;;;;;;;5018254;28;20073;-79
2023/08/07 11:54:33;;;;;;;2.67;2.03;;;;;;;;;;5036376;28;20359;-78
2023/08/07 11:57:01;;;;;;;4.72;2.30;;;;;;;;;;5027218;28;20076;-79
2023/08/07 11:59:28;;;;;;;2.15;1.58;;;;;;;;;;5028054;28;20045;-79
2023/08/07 12:01:57;;;;;;;3.00;1.52;;;;;;;;;;5030578;28;20045;-79
2023/08/07 12:04:24;;;;;;;3.40;2.10;;;;;;;;;;5036812;28;20065;-79
2023/08/07 12:06:55;;;;;;;2.45;1.92;;;;;;;;;;5038924;28;20085;-79
2023/08/07 12:09:26;;;;;;;4.75;2.40;;;;;;;;;;5034819;28;20049;-79
2023/08/07 12:11:58;;;;;;;4.10;2.42;;;;;;;;;;5027474;28;20049;-79
2023/08/07 12:14:30;;;;;;;3.47;2.13;;;;;;;;;;5032099;28;20096;-79
2023/08/07 12:16:57;;;;;;;4.32;2.10;;;;;;;;;;5023370;28;20189;-78
2023/08/07 12:19:36;;;;;;;5.75;2.53;;;;;;;;;;5019779;28;20484;-79
2023/08/07 12:22:04;;;;;;;5.07;2.47;;;;;;;;;;5022334;28;20049;-79
2023/08/07 12:24:31;;;;;;;4.45;2.10;;;;;;;;;;5028781;28;20518;-79
2023/08/07 12:26:58;;;;;;;5.63;2.63;;;;;;;;;;5029399;28;20487;-79
2023/08/07 12:29:29;;;;;;;2.30;1.55;;;;;;;;;;5028518;28;20049;-79
2023/08/07 12:31:58;;;;;;;5.22;1.60;;;;;;;;;;5029663;28;20057;-79
2023/08/07 12:34:26;;;;;;;1.42;1.42;;;;;;;;;;5032422;28;20071;-79
2023/08/07 12:36:56;;;;;;;4.38;2.28;;;;;;;;;;5017156;28;20045;-79
2023/08/07 12:39:24;;;;;;;3.28;1.48;;;;;;;;;;5033591;28;20076;-80
2023/08/07 12:42:13;;;;;;;2.68;1.74;;;;;;;;;;4992094;23;1649905;-75
2023/08/07 12:44:47;;;;;;;4.70;1.65;;;;;;;;;;5006212;28;20049;-75
2023/08/07 12:47:16;;;;;;;3.47;1.73;;;;;;;;;;5023333;28;20490;-76
2023/08/07 12:49:47;;;;;;;3.08;1.55;;;;;;;;;;5001811;28;20046;-75
2023/08/07 12:52:14;;;;;;;3.47;2.35;;;;;;;;;;4985640;28;20045;-75
2023/08/07 12:54:41;;;;;;;1.73;1.63;;;;;;;;;;5006281;28;20049;-77
2023/08/07 12:57:09;;;;;;;2.28;2.00;;;;;;;;;;5006460;28;20046;-75
2023/08/07 12:59:36;;;;;;;2.08;1.95;;;;;;;;;;5005467;28;20456;-75
2023/08/07 13:02:04;;;;;;;2.75;1.75;;;;;;;;;;5007056;28;20050;-76
2023/08/07 13:04:33;;;;;;;3.95;2.25;;;;;;;;;;5006279;28;20049;-76
2023/08/07 13:07:00;;;;;;;3.25;1.95;;;;;;;;;;5006775;28;20719;-75
2023/08/07 13:09:28;;;;;;;3.28;2.40;;;;;;;;;;5005394;28;20068;-75
2023/08/07 13:11:55;;;;;;;3.53;1.38;;;;;;;;;;4998057;28;20085;-75
2023/08/07 13:14:22;;;;;;;5.18;2.25;;;;;;;;;;4998611;28;20132;-76
2023/08/07 13:16:50;;;;;;;4.07;2.15;;;;;;;;;;5006636;28;20053;-77
2023/08/07 13:19:18;;;;;;;2.67;2.33;;;;;;;;;;5005726;28;20451;-76
2023/08/07 13:21:46;;;;;;;4.65;2.00;;;;;;;;;;5007274;28;20335;-76
2023/08/07 13:24:13;;;;;;;1.50;1.40;;;;;;;;;;5009886;28;20522;-76
2023/08/07 13:26:44;;;;;;;3.45;2.00;;;;;;;;;;5010856;28;20056;-76
2023/08/07 13:29:12;;;;;;;4.00;3.25;;;;;;;;;;5010096;28;20049;-78
2023/08/07 13:31:41;;;;;;;3.05;2.10;;;;;;;;;;5010014;28;20419;-76
2023/08/07 13:34:10;;;;;;;1.90;1.80;;;;;;;;;;5010373;28;20065;-76
2023/08/07 13:36:38;;;;;;;3.85;2.05;;;;;;;;;;5011266;28;20462;-76
2023/08/07 13:39:06;;;;;;;4.95;2.42;;;;;;;;;;5010320;28;20242;-76
2023/08/07 13:41:33;;;;;;;2.17;1.40;;;;;;;;;;5010865;28;20104;-76
2023/08/07 13:44:01;;;;;;;2.47;1.42;;;;;;;;;;4991788;28;20057;-78
2023/08/07 13:46:28;;;;;;;2.65;2.42;;;;;;;;;;5010313;28;20050;-76
2023/08/07 13:48:56;;;;;;;2.00;1.88;;;;;;;;;;5008895;28;20558;-78
2023/08/07 13:51:23;;;;;;;3.50;1.45;;;;;;;;;;5008540;28;20400;-75
2023/08/07 13:53:52;;;;;;;1.40;1.30;;;;;;;;;;5003638;28;20569;-75
2023/08/07 13:56:20;;;;;;;2.28;1.60;;;;;;;;;;5009962;28;20511;-76
2023/08/07 13:58:48;;;;;;;1.33;1.15;;;;;;;;;;5009544;28;20506;-77
2023/08/07 14:01:15;;;;;;;1.20;1.10;;;;;;;;;;5009799;28;20054;-76
2023/08/07 14:03:43;;;;;;;1.80;1.50;;;;;;;;;;5010127;28;20125;-76
2023/08/07 14:06:10;;;;;;;1.90;1.45;;;;;;;;;;5010064;28;20504;-75
2023/08/07 14:08:37;;;;;;;2.97;1.38;;;;;;;;;;5006431;28;20124;-75
2023/08/07 14:11:06;;;;;;;1.95;1.30;;;;;;;;;;5005293;28;20069;-78
2023/08/07 14:13:33;;;;;;;3.60;1.50;;;;;;;;;;5009693;28;20093;-77
2023/08/07 14:16:01;;;;;;;1.63;1.50;;;;;;;;;;5010073;28;20054;-76
2023/08/07 14:18:28;;;;;;;3.47;1.65;;;;;;;;;;5009130;28;20151;-75
2023/08/07 14:20:56;;;;;;;2.40;1.50;;;;;;;;;;5009532;28;20573;-76
2023/08/07 14:23:30;;;;;;;2.90;1.50;;;;;;;;;;5009648;28;20050;-76
2023/08/07 14:26:01;;;;;;;2.63;1.70;;;;;;;;;;5010188;28;20049;-75
2023/08/07 14:28:28;;;;;;;2.45;1.80;;;;;;;;;;5009176;28;20073;-75
2023/08/07 14:30:59;;;;;;;4.60;1.52;;;;;;;;;;5009722;28;20077;-76
2023/08/07 14:33:28;;;;;;;4.20;2.03;;;;;;;;;;5008202;28;20439;-75
2023/08/07 14:35:56;;;;;;;1.58;1.08;;;;;;;;;;5009797;28;20058;-77
2023/08/07 14:38:23;;;;;;;2.85;1.40;;;;;;;;;;5008609;28;20050;-76
2023/08/07 14:40:50;;;;;;;1.83;1.48;;;;;;;;;;5009015;28;20061;-77
2023/08/07 14:43:18;;;;;;;1.98;1.52;;;;;;;;;;5008908;28;20068;-76
2023/08/07 14:45:45;;;;;;;1.50;1.40;;;;;;;;;;5008330;28;20045;-76
2023/08/07 14:48:14;;;;;;;1.90;1.50;;;;;;;;;;5008821;28;20426;-76
2023/08/07 14:50:42;;;;;;;3.72;2.53;;;;;;;;;;5000682;28;20042;-75
2023/08/07 14:53:09;;;;;;;1.50;1.30;;;;;;;;;;5009123;28;20299;-76
2023/08/07 14:55:36;;;;;;;1.55;1.45;;;;;;;;;;5009032;28;20428;-76
2023/08/07 14:58:05;;;;;;;1.23;1.13;;;;;;;;;;5008403;28;20155;-75
2023/08/07 15:00:32;;;;;;;1.48;1.30;;;;;;;;;;5008523;28;20057;-76